createdAt,value
2018-09-28T00:00:47.686Z,6.43
2018-09-28T00:03:16.072Z,6.80
2018-09-28T00:05:44.475Z,6.23
2018-09-28T00:08:12.895Z,5.93
2018-09-28T00:10:41.345Z,6.10
2018-09-28T00:13:09.809Z,5.57
2018-09-28T00:15:38.184Z,6.03
2018-09-28T00:18:06.635Z,5.83
2018-09-28T00:20:35.077Z,5.77
2018-09-28T00:23:03.476Z,6.07
2018-09-28T00:25:31.867Z,5.43
2018-09-28T00:28:00.275Z,5.97
2018-09-28T00:30:28.784Z,5.57
2018-09-28T00:32:57.232Z,5.73
2018-09-28T00:35:25.649Z,5.43
2018-09-28T00:37:54.053Z,5.30
2018-09-28T00:40:22.436Z,5.60
2018-09-28T00:42:50.836Z,5.77
2018-09-28T00:45:19.189Z,5.50
2018-09-28T00:47:47.613Z,5.97
2018-09-28T00:50:16.677Z,5.80
2018-09-28T00:52:45.096Z,6.00
2018-09-28T00:55:13.488Z,5.43
2018-09-28T00:57:41.898Z,5.23
2018-09-28T01:00:10.332Z,5.53
2018-09-28T01:02:38.720Z,5.17
2018-09-28T01:05:07.149Z,5.17
2018-09-28T01:07:35.560Z,5.40
2018-09-28T01:10:04.033Z,5.33
2018-09-28T01:12:32.488Z,5.03
2018-09-28T01:15:01.130Z,4.67
2018-09-28T01:17:29.564Z,4.77
2018-09-28T01:19:57.947Z,4.37
2018-09-28T01:22:26.403Z,5.73
2018-09-28T01:24:54.796Z,5.83
2018-09-28T01:27:23.188Z,4.90
2018-09-28T01:29:51.635Z,5.07
2018-09-28T01:32:20.195Z,5.23
2018-09-28T01:34:48.560Z,6.17
2018-09-28T01:37:16.953Z,5.73
2018-09-28T01:39:45.329Z,5.50
2018-09-28T01:42:13.709Z,4.73
2018-09-28T01:44:42.096Z,5.70
2018-09-28T01:47:10.540Z,5.07
2018-09-28T01:49:39.140Z,5.23
2018-09-28T01:52:07.589Z,4.90
2018-09-28T01:54:35.962Z,5.70
2018-09-28T01:57:04.357Z,5.70
2018-09-28T01:59:32.801Z,5.10
2018-09-28T02:02:01.284Z,5.60
2018-09-28T02:04:29.689Z,5.17
2018-09-28T02:06:58.067Z,5.17
2018-09-28T02:09:27.076Z,5.60
2018-09-28T02:11:55.520Z,5.43
2018-09-28T02:14:24.112Z,5.87
2018-09-28T02:16:52.525Z,5.33
2018-09-28T02:19:20.996Z,5.73
2018-09-28T02:21:49.395Z,5.43
2018-09-28T02:24:17.793Z,5.03
2018-09-28T02:26:46.196Z,6.03
2018-09-28T02:29:14.571Z,5.80
2018-09-28T02:31:42.977Z,5.37
2018-09-28T02:34:11.348Z,5.97
2018-09-28T02:36:39.813Z,5.73
2018-09-28T02:39:08.611Z,5.80
2018-09-28T02:41:37.127Z,6.10
2018-09-28T02:44:05.556Z,6.20
2018-09-28T02:46:34.010Z,5.73
2018-09-28T02:49:02.868Z,6.33
2018-09-28T02:51:31.260Z,5.63
2018-09-28T02:53:59.643Z,5.60
2018-09-28T02:56:28.063Z,6.03
2018-09-28T02:58:56.534Z,5.70
2018-09-28T03:01:24.953Z,5.67
2018-09-28T03:03:53.364Z,6.10
2018-09-28T03:06:21.943Z,5.00
2018-09-28T03:08:50.221Z,6.20
2018-09-28T03:11:18.623Z,6.30
2018-09-28T03:13:46.999Z,5.70
2018-09-28T03:16:15.398Z,5.57
2018-09-28T03:18:43.783Z,5.73
2018-09-28T03:21:12.287Z,5.70
2018-09-28T03:23:40.788Z,5.70
2018-09-28T03:26:09.161Z,6.03
2018-09-28T03:28:38.291Z,5.87
2018-09-28T03:31:06.761Z,6.03
2018-09-28T03:33:35.184Z,6.20
2018-09-28T03:36:03.564Z,6.30
2018-09-28T03:38:33.247Z,5.80
2018-09-28T03:41:01.700Z,5.97
2018-09-28T03:43:30.145Z,5.90
2018-09-28T03:45:58.847Z,6.20
2018-09-28T03:48:27.364Z,6.50
2018-09-28T03:50:55.775Z,6.57
2018-09-28T03:53:24.408Z,6.40
2018-09-28T03:55:52.799Z,6.00
2018-09-28T03:58:21.214Z,6.70
2018-09-28T04:00:49.856Z,6.60
2018-09-28T04:03:18.232Z,7.60
2018-09-28T04:05:46.637Z,7.20
2018-09-28T04:08:15.037Z,6.80
2018-09-28T04:10:43.571Z,6.50
2018-09-28T04:13:12.029Z,6.83
2018-09-28T04:15:40.416Z,8.13
2018-09-28T04:18:08.812Z,6.90
2018-09-28T04:20:37.215Z,7.33
2018-09-28T04:23:05.668Z,6.73
2018-09-28T04:25:34.204Z,8.00
2018-09-28T04:28:02.622Z,7.67
2018-09-28T04:30:31.029Z,7.63
2018-09-28T04:32:59.430Z,8.50
2018-09-28T04:35:27.836Z,8.17
2018-09-28T04:37:56.229Z,7.77
2018-09-28T04:40:24.694Z,7.87
2018-09-28T04:42:53.125Z,8.17
2018-09-28T04:45:21.587Z,7.47
2018-09-28T04:47:49.892Z,9.37
2018-09-28T04:50:18.326Z,8.03
2018-09-28T04:52:46.735Z,9.03
2018-09-28T04:55:15.095Z,8.00
2018-09-28T04:57:43.480Z,8.40
2018-09-28T05:00:11.911Z,8.13
2018-09-28T05:02:40.341Z,7.77
2018-09-28T05:05:08.828Z,8.30
2018-09-28T05:07:37.232Z,8.47
2018-09-28T05:10:05.803Z,8.23
2018-09-28T05:12:34.352Z,8.67
2018-09-28T05:15:02.788Z,8.00
2018-09-28T05:17:31.200Z,8.53
2018-09-28T05:19:59.624Z,8.87
2018-09-28T05:22:28.063Z,8.13
2018-09-28T05:24:56.462Z,8.50
2018-09-28T05:27:24.901Z,8.20
2018-09-28T05:29:53.276Z,8.10
2018-09-28T05:32:21.796Z,7.97
2018-09-28T05:34:50.106Z,8.70
2018-09-28T05:37:18.517Z,7.53
2018-09-28T05:39:46.929Z,7.57
2018-09-28T05:42:15.355Z,8.50
2018-09-28T05:44:43.820Z,8.03
2018-09-28T05:47:11.908Z,7.90
2018-09-28T05:49:40.361Z,7.90
2018-09-28T05:52:08.804Z,7.83
2018-09-28T05:54:37.192Z,7.97
2018-09-28T05:57:05.612Z,6.90
2018-09-28T05:59:39.477Z,7.33
2018-09-28T06:02:13.200Z,6.83
2018-09-28T06:04:46.920Z,6.37
2018-09-28T06:07:15.330Z,6.77
2018-09-28T06:09:43.817Z,6.37
2018-09-28T06:12:12.405Z,6.70
2018-09-28T06:14:40.836Z,6.97
2018-09-28T06:17:09.208Z,7.57
2018-09-28T06:19:37.756Z,7.53
2018-09-28T06:22:06.184Z,7.40
2018-09-28T06:24:34.565Z,7.57
2018-09-28T06:27:02.936Z,7.97
2018-09-28T06:29:31.352Z,7.70
2018-09-28T06:31:59.715Z,7.10
2018-09-28T06:34:28.155Z,7.37
2018-09-28T06:36:56.532Z,7.50
2018-09-28T06:39:24.927Z,7.80
2018-09-28T06:41:53.337Z,6.93
2018-09-28T06:44:21.680Z,7.07
2018-09-28T06:46:50.071Z,7.00
2018-09-28T06:49:18.477Z,7.87
2018-09-28T06:51:46.888Z,7.23
2018-09-28T06:54:15.376Z,7.83
2018-09-28T06:56:43.763Z,7.13
2018-09-28T06:59:12.208Z,7.60
2018-09-28T07:01:40.611Z,7.97
2018-09-28T07:04:09.151Z,7.90
2018-09-28T07:06:37.524Z,7.23
2018-09-28T07:09:08.993Z,7.37
2018-09-28T07:11:37.396Z,7.47
2018-09-28T07:14:06.000Z,7.80
2018-09-28T07:16:34.458Z,7.93
2018-09-28T07:19:03.112Z,7.87
2018-09-28T07:21:31.510Z,7.53
2018-09-28T07:23:59.955Z,7.93
2018-09-28T07:26:28.336Z,7.53
2018-09-28T07:28:56.731Z,7.50
2018-09-28T07:31:25.216Z,8.57
2018-09-28T07:33:53.625Z,7.77
2018-09-28T07:36:22.163Z,7.47
2018-09-28T07:38:50.497Z,7.43
2018-09-28T07:41:18.925Z,7.50
2018-09-28T07:43:47.323Z,7.67
2018-09-28T07:46:15.705Z,7.50
2018-09-28T07:48:44.111Z,8.23
2018-09-28T07:51:12.542Z,7.97
2018-09-28T07:53:40.944Z,8.37
2018-09-28T07:56:09.365Z,8.43
2018-09-28T07:58:37.781Z,9.00
2018-09-28T08:01:06.207Z,10.20
2018-09-28T08:03:34.605Z,10.47
2018-09-28T08:06:03.004Z,10.53
2018-09-28T08:08:31.424Z,11.90
2018-09-28T08:10:59.857Z,12.07
2018-09-28T08:13:28.244Z,18.30
2018-09-28T08:15:56.703Z,20.20
2018-09-28T08:18:25.256Z,19.80
2018-09-28T08:20:53.644Z,23.03
2018-09-28T08:23:22.054Z,24.13
2018-09-28T08:25:50.444Z,21.33
2018-09-28T08:28:18.928Z,23.67
2018-09-28T08:30:47.371Z,23.50
2018-09-28T08:33:15.799Z,23.30
2018-09-28T08:35:44.197Z,29.90
2018-09-28T08:38:12.602Z,26.00
2018-09-28T08:40:40.984Z,24.53
2018-09-28T08:43:09.500Z,28.33
2018-09-28T08:45:37.931Z,27.27
2018-09-28T08:48:07.244Z,28.97
2018-09-28T08:50:35.937Z,32.17
2018-09-28T08:53:04.299Z,34.17
2018-09-28T08:55:32.728Z,30.40
2018-09-28T08:58:01.157Z,36.27
2018-09-28T09:00:29.553Z,30.47
2018-09-28T09:02:57.954Z,32.80
2018-09-28T09:05:26.349Z,33.50
2018-09-28T09:07:54.780Z,41.97
2018-09-28T09:10:23.239Z,33.03
2018-09-28T09:12:51.773Z,39.30
2018-09-28T09:15:20.178Z,37.43
2018-09-28T09:17:48.585Z,39.43
2018-09-28T09:20:16.988Z,40.03
2018-09-28T09:22:45.634Z,43.13
2018-09-28T09:25:14.053Z,45.47
2018-09-28T09:27:42.537Z,39.33
2018-09-28T09:30:11.003Z,38.67
2018-09-28T09:32:39.344Z,38.83
2018-09-28T09:35:07.928Z,43.27
2018-09-28T09:37:36.414Z,49.00
2018-09-28T09:40:04.876Z,50.57
2018-09-28T09:42:33.358Z,46.77
2018-09-28T09:45:01.961Z,42.43
2018-09-28T09:47:30.444Z,50.87
2018-09-28T09:49:58.877Z,38.63
2018-09-28T09:52:27.360Z,44.03
2018-09-28T09:54:55.732Z,47.77
2018-09-28T09:57:24.145Z,44.20
2018-09-28T09:59:52.533Z,39.87
2018-09-28T10:02:26.114Z,40.40
2018-09-28T10:04:54.534Z,40.83
2018-09-28T10:07:22.951Z,39.43
2018-09-28T10:09:51.355Z,36.83
2018-09-28T10:12:19.851Z,35.40
2018-09-28T10:14:48.312Z,33.80
2018-09-28T10:17:16.692Z,39.83
2018-09-28T10:19:45.180Z,35.73
2018-09-28T10:22:13.504Z,37.23
2018-09-28T10:24:41.924Z,36.43
2018-09-28T10:27:10.471Z,31.30
2018-09-28T10:29:38.879Z,36.03
2018-09-28T10:32:07.352Z,29.30
2018-09-28T10:34:35.868Z,34.90
2018-09-28T10:37:04.247Z,35.53
2018-09-28T10:39:32.698Z,34.03
2018-09-28T10:42:01.101Z,32.23
2018-09-28T10:44:29.513Z,29.70
2018-09-28T10:46:57.920Z,26.93
2018-09-28T10:49:26.385Z,29.33
2018-09-28T10:51:54.871Z,24.37
2018-09-28T10:54:23.189Z,25.57
2018-09-28T10:56:51.644Z,25.67
2018-09-28T10:59:20.096Z,22.93
2018-09-28T11:01:48.505Z,18.57
2018-09-28T11:04:16.977Z,24.70
2018-09-28T11:06:45.343Z,19.07
2018-09-28T11:09:13.857Z,20.33
2018-09-28T11:11:42.841Z,14.63
2018-09-28T11:14:11.283Z,12.80
2018-09-28T11:16:40.139Z,12.90
2018-09-28T11:19:08.676Z,13.03
2018-09-28T11:21:37.125Z,12.70
2018-09-28T11:24:05.500Z,11.90
2018-09-28T11:26:34.037Z,10.60
2018-09-28T11:29:02.437Z,11.17
2018-09-28T11:31:30.866Z,11.03
2018-09-28T11:33:59.260Z,9.83
2018-09-28T11:36:27.729Z,11.00
2018-09-28T11:38:56.181Z,9.20
2018-09-28T11:41:24.645Z,9.40
2018-09-28T11:43:53.044Z,10.30
2018-09-28T11:46:21.439Z,9.17
2018-09-28T11:48:49.919Z,8.83
2018-09-28T11:51:18.371Z,7.30
2018-09-28T11:53:46.799Z,6.47
2018-09-28T11:56:15.227Z,6.30
2018-09-28T11:58:43.610Z,7.13
2018-09-28T12:01:12.026Z,5.67
2018-09-28T12:03:40.476Z,6.73
2018-09-28T12:06:08.944Z,6.27
2018-09-28T12:08:37.339Z,6.67
2018-09-28T12:11:06.176Z,7.60
2018-09-28T12:13:34.549Z,6.27
2018-09-28T12:16:02.936Z,4.37
2018-09-28T12:18:31.391Z,4.80
2018-09-28T12:20:59.747Z,4.60
2018-09-28T12:23:28.156Z,5.03
2018-09-28T12:25:56.589Z,5.20
2018-09-28T12:28:25.234Z,5.17
2018-09-28T12:30:53.636Z,4.27
2018-09-28T12:33:22.131Z,4.80
2018-09-28T12:35:50.464Z,4.63
2018-09-28T12:38:18.913Z,4.77
2018-09-28T12:40:47.413Z,3.97
2018-09-28T12:43:15.835Z,3.97
2018-09-28T12:45:44.232Z,4.00
2018-09-28T12:48:12.749Z,3.80
2018-09-28T12:50:41.215Z,3.83
2018-09-28T12:53:09.543Z,3.60
2018-09-28T12:55:37.961Z,4.03
2018-09-28T12:58:06.761Z,3.70
2018-09-28T13:00:35.346Z,4.13
2018-09-28T13:03:03.731Z,4.17
2018-09-28T13:05:32.228Z,3.53
2018-09-28T13:08:00.628Z,3.60
2018-09-28T13:10:29.032Z,3.50
2018-09-28T13:12:57.433Z,3.67
2018-09-28T13:15:25.857Z,3.70
2018-09-28T13:17:54.254Z,3.87
2018-09-28T13:20:22.994Z,4.57
2018-09-28T13:22:51.397Z,4.67
2018-09-28T13:25:19.799Z,3.70
2018-09-28T13:27:48.228Z,3.90
2018-09-28T13:30:16.792Z,3.53
2018-09-28T13:32:45.289Z,4.30
2018-09-28T13:35:13.757Z,4.53
2018-09-28T13:37:42.175Z,4.87
2018-09-28T13:40:10.641Z,4.90
2018-09-28T13:42:39.101Z,4.00
2018-09-28T13:45:07.561Z,4.23
2018-09-28T13:47:36.049Z,4.00
2018-09-28T13:50:04.741Z,3.83
2018-09-28T13:52:33.303Z,4.27
2018-09-28T13:55:01.731Z,4.80
2018-09-28T13:57:30.192Z,3.63
2018-09-28T13:59:58.620Z,3.97
2018-09-28T14:02:27.290Z,5.07
2018-09-28T14:04:55.717Z,3.63
2018-09-28T14:07:24.417Z,4.40
2018-09-28T14:09:53.057Z,5.07
2018-09-28T14:12:21.548Z,4.70
2018-09-28T14:14:50.208Z,5.43
2018-09-28T14:17:18.609Z,5.93
2018-09-28T14:19:47.046Z,5.47
2018-09-28T14:22:15.633Z,4.93
2018-09-28T14:24:44.295Z,4.53
2018-09-28T14:27:12.876Z,4.40
2018-09-28T14:29:41.263Z,5.40
2018-09-28T14:32:09.780Z,5.10
2018-09-28T14:34:38.237Z,4.83
2018-09-28T14:37:06.883Z,4.93
2018-09-28T14:39:35.414Z,5.20
2018-09-28T14:42:03.892Z,5.07
2018-09-28T14:44:32.301Z,4.87
2018-09-28T14:47:00.740Z,4.23
2018-09-28T14:49:29.145Z,4.03
2018-09-28T14:51:57.676Z,4.40
2018-09-28T14:54:26.083Z,3.67
2018-09-28T14:56:54.687Z,4.37
2018-09-28T14:59:23.238Z,5.43
2018-09-28T15:01:51.747Z,4.57
2018-09-28T15:04:20.234Z,4.33
2018-09-28T15:06:48.814Z,4.23
2018-09-28T15:09:17.076Z,4.83
2018-09-28T15:11:45.476Z,4.10
2018-09-28T15:14:13.980Z,3.80
2018-09-28T15:16:42.460Z,4.20
2018-09-28T15:19:10.867Z,4.63
2018-09-28T15:21:39.400Z,5.03
2018-09-28T15:24:08.061Z,4.80
2018-09-28T15:26:36.348Z,5.20
2018-09-28T15:29:04.908Z,5.00
2018-09-28T15:31:34.648Z,4.83
2018-09-28T15:34:04.743Z,4.80
2018-09-28T15:36:33.274Z,5.63
2018-09-28T15:39:01.770Z,4.57
2018-09-28T15:41:30.259Z,4.30
2018-09-28T15:43:58.973Z,3.83
2018-09-28T15:46:27.505Z,4.30
2018-09-28T15:48:55.921Z,4.40
2018-09-28T15:51:24.440Z,4.30
2018-09-28T15:53:52.879Z,4.47
2018-09-28T15:56:21.389Z,3.90
2018-09-28T15:58:49.774Z,4.80
2018-09-28T16:01:18.245Z,5.27
2018-09-28T16:03:46.693Z,4.60
2018-09-28T16:06:15.214Z,3.53
2018-09-28T16:08:43.596Z,4.67
2018-09-28T16:11:12.770Z,4.23
2018-09-28T16:13:41.145Z,4.10
2018-09-28T16:16:09.647Z,4.13
2018-09-28T16:18:38.545Z,3.40
2018-09-28T16:21:07.120Z,3.57
2018-09-28T16:23:35.801Z,3.07
2018-09-28T16:26:04.281Z,3.17
2018-09-28T16:28:32.663Z,3.20
2018-09-28T16:31:01.152Z,3.20
2018-09-28T16:33:29.689Z,3.20
2018-09-28T16:35:58.168Z,3.03
2018-09-28T16:38:26.583Z,3.30
2018-09-28T16:40:55.008Z,3.07
2018-09-28T16:43:23.419Z,3.40
2018-09-28T16:45:51.891Z,3.43
2018-09-28T16:48:20.320Z,3.77
2018-09-28T16:50:48.753Z,3.40
2018-09-28T16:53:17.160Z,3.50
2018-09-28T16:55:45.658Z,4.03
2018-09-28T16:58:14.563Z,5.20
2018-09-28T17:00:43.210Z,6.60
2018-09-28T17:03:11.627Z,9.50
2018-09-28T17:05:40.159Z,9.77
2018-09-28T17:08:08.669Z,8.53
2018-09-28T17:10:37.200Z,12.10
2018-09-28T17:13:05.736Z,14.87
2018-09-28T17:15:34.248Z,12.37
2018-09-28T17:18:02.731Z,7.60
2018-09-28T17:20:31.176Z,7.37
2018-09-28T17:22:59.877Z,5.00
2018-09-28T17:25:28.365Z,4.43
2018-09-28T17:27:56.839Z,9.77
2018-09-28T17:30:25.464Z,8.93
2018-09-28T17:32:53.921Z,8.30
2018-09-28T17:35:22.444Z,5.97
2018-09-28T17:37:51.108Z,5.30
2018-09-28T17:40:19.580Z,5.40
2018-09-28T17:42:48.175Z,4.87
2018-09-28T17:45:16.650Z,4.90
2018-09-28T17:47:45.148Z,4.90
2018-09-28T17:50:13.626Z,4.23
2018-09-28T17:52:42.342Z,4.40
2018-09-28T17:55:10.726Z,4.07
2018-09-28T17:57:39.133Z,4.30
2018-09-28T18:00:07.959Z,4.50
2018-09-28T18:02:36.438Z,5.77
2018-09-28T18:05:11.791Z,5.13
2018-09-28T18:07:40.245Z,5.03
2018-09-28T18:10:08.810Z,4.13
2018-09-28T18:12:37.312Z,4.97
2018-09-28T18:15:05.816Z,5.83
2018-09-28T18:17:34.556Z,7.20
2018-09-28T18:20:03.230Z,8.43
2018-09-28T18:22:31.618Z,7.60
2018-09-28T18:25:00.017Z,8.93
2018-09-28T18:27:28.493Z,9.67
2018-09-28T18:29:56.981Z,12.60
2018-09-28T18:32:25.416Z,14.27
2018-09-28T18:34:53.879Z,11.83
2018-09-28T18:37:22.368Z,15.17
2018-09-28T18:39:50.843Z,15.50
2018-09-28T18:42:19.487Z,14.53
2018-09-28T18:44:47.996Z,13.73
2018-09-28T18:47:16.533Z,13.70
2018-09-28T18:49:45.072Z,11.47
2018-09-28T18:52:13.742Z,10.50
2018-09-28T18:54:42.283Z,10.20
2018-09-28T18:57:10.723Z,8.97
2018-09-28T18:59:39.242Z,7.30
2018-09-28T19:02:07.704Z,6.83
2018-09-28T19:04:36.112Z,8.00
2018-09-28T19:07:04.821Z,5.80
2018-09-28T19:09:33.233Z,6.90
2018-09-28T19:12:01.675Z,5.10
2018-09-28T19:14:30.132Z,5.20
2018-09-28T19:16:58.773Z,4.40
2018-09-28T19:19:27.240Z,4.37
2018-09-28T19:21:56.088Z,4.40
2018-09-28T19:24:24.593Z,4.00
2018-09-28T19:26:53.152Z,3.97
2018-09-28T19:29:21.566Z,3.97
2018-09-28T19:31:50.101Z,3.63
2018-09-28T19:34:18.605Z,3.60
2018-09-28T19:36:47.609Z,4.30
2018-09-28T19:39:16.099Z,4.10
2018-09-28T19:41:44.513Z,4.10
2018-09-28T19:44:13.021Z,4.23
2018-09-28T19:46:41.810Z,4.37
2018-09-28T19:49:10.533Z,3.70
2018-09-28T19:51:39.092Z,3.97
2018-09-28T19:54:07.669Z,4.20
2018-09-28T19:56:36.117Z,4.40
2018-09-28T19:59:04.722Z,5.60
2018-09-28T20:01:33.250Z,5.40
2018-09-28T20:04:01.729Z,4.97
2018-09-28T20:06:30.164Z,4.37
2018-09-28T20:08:58.654Z,5.30
2018-09-28T20:11:27.103Z,5.63
2018-09-28T20:13:55.508Z,5.53
2018-09-28T20:16:24.448Z,7.00
2018-09-28T20:18:52.889Z,5.80
2018-09-28T20:21:21.343Z,5.80
2018-09-28T20:23:49.950Z,5.87
2018-09-28T20:26:18.451Z,7.07
2018-09-28T20:28:47.022Z,6.13
2018-09-28T20:31:15.590Z,8.27
2018-09-28T20:33:44.010Z,8.63
2018-09-28T20:36:12.713Z,9.80
2018-09-28T20:38:41.204Z,11.43
2018-09-28T20:41:09.668Z,10.17
2018-09-28T20:43:38.130Z,11.60
2018-09-28T20:46:07.028Z,10.17
2018-09-28T20:48:35.806Z,9.43
2018-09-28T20:51:04.259Z,10.33
2018-09-28T20:53:32.852Z,6.63
2018-09-28T20:56:01.405Z,5.93
2018-09-28T20:58:29.898Z,5.27
2018-09-28T21:00:58.571Z,5.73
2018-09-28T21:03:26.905Z,5.70
2018-09-28T21:05:55.410Z,5.17
2018-09-28T21:08:23.859Z,4.60
2018-09-28T21:10:52.299Z,4.93
2018-09-28T21:13:20.758Z,5.47
2018-09-28T21:15:49.225Z,5.00
2018-09-28T21:18:17.653Z,4.47
2018-09-28T21:20:46.064Z,4.47
2018-09-28T21:23:14.501Z,4.90
2018-09-28T21:25:42.970Z,4.90
2018-09-28T21:28:11.484Z,4.90
2018-09-28T21:30:39.924Z,5.20
2018-09-28T21:33:08.404Z,5.20
2018-09-28T21:35:36.810Z,5.60
2018-09-28T21:38:05.280Z,5.50
2018-09-28T21:40:33.708Z,7.17
2018-09-28T21:43:02.101Z,8.53
2018-09-28T21:45:30.476Z,8.93
2018-09-28T21:47:58.876Z,9.67
2018-09-28T21:50:27.301Z,10.77
2018-09-28T21:52:56.556Z,12.93
2018-09-28T21:55:25.011Z,12.53
2018-09-28T21:57:53.428Z,12.80
2018-09-28T22:00:21.903Z,14.13
2018-09-28T22:02:50.324Z,13.53
2018-09-28T22:05:18.740Z,15.87
2018-09-28T22:07:47.149Z,14.00
2018-09-28T22:10:15.631Z,12.10
2018-09-28T22:12:44.092Z,8.70
2018-09-28T22:15:12.711Z,9.17
2018-09-28T22:17:41.154Z,7.00
2018-09-28T22:20:09.623Z,7.10
2018-09-28T22:22:38.063Z,7.40
2018-09-28T22:25:06.485Z,7.20
2018-09-28T22:27:34.905Z,6.60
2018-09-28T22:30:03.405Z,7.10
2018-09-28T22:32:31.788Z,6.93
2018-09-28T22:35:00.212Z,6.87
2018-09-28T22:37:28.623Z,7.50
2018-09-28T22:39:57.000Z,6.87
2018-09-28T22:42:25.406Z,7.30
2018-09-28T22:44:53.868Z,9.07
2018-09-28T22:47:22.281Z,9.33
2018-09-28T22:49:50.707Z,11.83
2018-09-28T22:52:19.165Z,13.03
2018-09-28T22:54:47.562Z,15.93
2018-09-28T22:57:15.991Z,16.23
2018-09-28T22:59:44.371Z,15.17
2018-09-28T23:02:12.999Z,15.37
2018-09-28T23:04:41.389Z,14.97
2018-09-28T23:07:09.869Z,8.10
2018-09-28T23:09:38.265Z,14.90
2018-09-28T23:12:06.808Z,14.47
2018-09-28T23:14:35.201Z,15.90
2018-09-28T23:17:03.595Z,14.90
2018-09-28T23:19:31.960Z,16.60
2018-09-28T23:22:00.390Z,15.30
2018-09-28T23:24:28.812Z,13.70
2018-09-28T23:26:57.282Z,13.53
2018-09-28T23:29:25.690Z,13.77
2018-09-28T23:31:54.114Z,12.30
2018-09-28T23:34:22.636Z,14.27
2018-09-28T23:36:51.068Z,15.57
2018-09-28T23:39:19.568Z,14.60
2018-09-28T23:41:47.979Z,16.30
2018-09-28T23:44:16.441Z,15.83
2018-09-28T23:46:44.845Z,13.47
2018-09-28T23:49:13.232Z,13.67
2018-09-28T23:51:41.624Z,17.00
2018-09-28T23:54:10.035Z,15.17
2018-09-28T23:56:38.459Z,13.60
2018-09-28T23:59:06.913Z,12.57
